createdAt,value
2023-01-28T00:00:32.602Z,1029.33
2023-01-28T00:01:32.811Z,1029.39
2023-01-28T00:02:32.975Z,1029.35
2023-01-28T00:03:33.174Z,1029.38
2023-01-28T00:04:33.279Z,1029.39
2023-01-28T00:05:33.444Z,1029.40
2023-01-28T00:06:33.635Z,1029.33
2023-01-28T00:07:33.876Z,1029.38
2023-01-28T00:08:33.980Z,1029.36
2023-01-28T00:09:34.145Z,1029.39
2023-01-28T00:10:34.368Z,1029.36
2023-01-28T00:11:34.549Z,1029.36
2023-01-28T00:12:34.674Z,1029.36
2023-01-28T00:13:34.848Z,1029.35
2023-01-28T00:14:35.026Z,1029.36
2023-01-28T00:15:35.165Z,1029.38
2023-01-28T00:16:35.435Z,1029.37
2023-01-28T00:17:35.548Z,1029.41
2023-01-28T00:18:35.707Z,1029.33
2023-01-28T00:19:35.854Z,1029.39
2023-01-28T00:20:36.049Z,1029.45
2023-01-28T00:21:36.227Z,1029.50
2023-01-28T00:22:36.388Z,1029.49
2023-01-28T00:23:36.546Z,1029.50
2023-01-28T00:24:36.739Z,1029.49
2023-01-28T00:25:36.907Z,1029.51
2023-01-28T00:26:37.095Z,1029.49
2023-01-28T00:27:37.266Z,1029.49
2023-01-28T00:28:37.480Z,1029.51
2023-01-28T00:29:37.681Z,1029.49
2023-01-28T00:30:38.041Z,1029.57
2023-01-28T00:31:38.123Z,1029.56
2023-01-28T00:32:38.146Z,1029.57
2023-01-28T00:33:38.350Z,1029.53
2023-01-28T00:34:38.598Z,1029.49
2023-01-28T00:35:38.673Z,1029.49
2023-01-28T00:36:38.853Z,1029.48
2023-01-28T00:37:39.052Z,1029.54
2023-01-28T00:38:39.184Z,1029.50
2023-01-28T00:39:39.346Z,1029.51
2023-01-28T00:40:39.523Z,1029.51
2023-01-28T00:41:39.706Z,1029.50
2023-01-28T00:42:39.866Z,1029.47
2023-01-28T00:43:40.057Z,1029.47
2023-01-28T00:44:40.203Z,1029.48
2023-01-28T00:45:40.422Z,1029.49
2023-01-28T00:46:40.574Z,1029.52
2023-01-28T00:47:40.749Z,1029.50
2023-01-28T00:48:40.968Z,1029.52
2023-01-28T00:49:41.104Z,1029.56
2023-01-28T00:50:41.266Z,1029.56
2023-01-28T00:51:41.442Z,1029.58
2023-01-28T00:52:41.631Z,1029.62
2023-01-28T00:53:41.812Z,1029.65
2023-01-28T00:54:41.972Z,1029.61
2023-01-28T00:55:42.226Z,1029.61
2023-01-28T00:56:42.322Z,1029.65
2023-01-28T00:57:42.494Z,1029.62
2023-01-28T00:58:42.750Z,1029.61
2023-01-28T00:59:42.820Z,1029.60
2023-01-28T01:00:42.981Z,1029.59
2023-01-28T01:01:43.225Z,1029.63
2023-01-28T01:02:43.446Z,1029.60
2023-01-28T01:03:43.491Z,1029.62
2023-01-28T01:04:43.655Z,1029.65
2023-01-28T01:05:43.934Z,1029.64
2023-01-28T01:06:44.017Z,1029.65
2023-01-28T01:07:44.190Z,1029.70
2023-01-28T01:08:44.424Z,1029.71
2023-01-28T01:09:44.540Z,1029.70
2023-01-28T01:10:44.691Z,1029.66
2023-01-28T01:11:44.953Z,1029.71
2023-01-28T01:12:45.023Z,1029.69
2023-01-28T01:13:45.228Z,1029.67
2023-01-28T01:14:45.411Z,1029.69
2023-01-28T01:15:45.613Z,1029.68
2023-01-28T01:16:45.768Z,1029.68
2023-01-28T01:17:45.945Z,1029.68
2023-01-28T01:18:46.116Z,1029.67
2023-01-28T01:19:46.289Z,1029.68
2023-01-28T01:20:46.478Z,1029.67
2023-01-28T01:21:46.712Z,1029.70
2023-01-28T01:22:46.818Z,1029.70
2023-01-28T01:23:46.979Z,1029.67
2023-01-28T01:24:47.221Z,1029.66
2023-01-28T01:25:47.337Z,1029.61
2023-01-28T01:26:47.508Z,1029.61
2023-01-28T01:27:47.675Z,1029.59
2023-01-28T01:28:47.827Z,1029.60
2023-01-28T01:29:48.038Z,1029.59
2023-01-28T01:30:48.216Z,1029.63
2023-01-28T01:31:48.426Z,1029.63
2023-01-28T01:32:48.554Z,1029.68
2023-01-28T01:33:48.750Z,1029.64
2023-01-28T01:34:48.978Z,1029.62
2023-01-28T01:35:49.188Z,1029.65
2023-01-28T01:36:49.266Z,1029.60
2023-01-28T01:37:49.404Z,1029.59
2023-01-28T01:38:49.536Z,1029.59
2023-01-28T01:39:49.805Z,1029.61
2023-01-28T01:40:49.909Z,1029.60
2023-01-28T01:41:50.111Z,1029.60
2023-01-28T01:42:50.364Z,1029.60
2023-01-28T01:43:50.426Z,1029.67
2023-01-28T01:44:50.610Z,1029.68
2023-01-28T01:45:50.882Z,1029.69
2023-01-28T01:46:50.967Z,1029.64
2023-01-28T01:47:51.114Z,1029.66
2023-01-28T01:48:51.320Z,1029.70
2023-01-28T01:49:51.451Z,1029.75
2023-01-28T01:50:51.623Z,1029.76
2023-01-28T01:51:51.803Z,1029.77
2023-01-28T01:52:51.955Z,1029.77
2023-01-28T01:53:52.123Z,1029.79
2023-01-28T01:54:52.273Z,1029.79
2023-01-28T01:55:52.454Z,1029.79
2023-01-28T01:56:52.641Z,1029.79
2023-01-28T01:57:52.794Z,1029.79
2023-01-28T01:58:52.944Z,1029.78
2023-01-28T01:59:53.152Z,1029.77
2023-01-28T02:00:53.392Z,1029.78
2023-01-28T02:01:53.587Z,1029.80
2023-01-28T02:02:53.654Z,1029.79
2023-01-28T02:03:53.818Z,1029.80
2023-01-28T02:04:53.976Z,1029.82
2023-01-28T02:05:54.266Z,1029.82
2023-01-28T02:06:54.357Z,1029.84
2023-01-28T02:07:54.471Z,1029.81
2023-01-28T02:08:54.704Z,1029.84
2023-01-28T02:09:54.812Z,1029.81
2023-01-28T02:10:54.969Z,1029.83
2023-01-28T02:11:55.206Z,1029.83
2023-01-28T02:12:55.315Z,1029.82
2023-01-28T02:13:57.160Z,1029.81
2023-01-28T02:14:55.687Z,1029.86
2023-01-28T02:15:55.841Z,1029.83
2023-01-28T02:16:56.127Z,1029.82
2023-01-28T02:17:56.162Z,1029.83
2023-01-28T02:18:56.320Z,1029.84
2023-01-28T02:19:56.483Z,1029.82
2023-01-28T02:20:56.773Z,1029.77
2023-01-28T02:21:56.822Z,1029.79
2023-01-28T02:22:56.971Z,1029.80
2023-01-28T02:23:57.207Z,1029.81
2023-01-28T02:24:57.356Z,1029.85
2023-01-28T02:25:57.535Z,1029.85
2023-01-28T02:26:57.709Z,1029.85
2023-01-28T02:27:57.876Z,1029.90
2023-01-28T02:28:58.084Z,1029.79
2023-01-28T02:29:58.213Z,1029.82
2023-01-28T02:30:58.441Z,1029.83
2023-01-28T02:31:58.600Z,1029.82
2023-01-28T02:32:58.700Z,1029.77
2023-01-28T02:33:58.858Z,1029.81
2023-01-28T02:34:59.033Z,1029.80
2023-01-28T02:35:59.188Z,1029.80
2023-01-28T02:36:59.379Z,1029.82
2023-01-28T02:37:59.545Z,1029.82
2023-01-28T02:38:59.691Z,1029.78
2023-01-28T02:39:59.890Z,1029.80
2023-01-28T02:41:00.047Z,1029.82
2023-01-28T02:42:00.227Z,1029.88
2023-01-28T02:43:00.377Z,1029.83
2023-01-28T02:44:00.590Z,1029.83
2023-01-28T02:45:00.737Z,1029.80
2023-01-28T02:46:00.960Z,1029.85
2023-01-28T02:47:01.131Z,1029.85
2023-01-28T02:48:01.338Z,1029.90
2023-01-28T02:49:01.475Z,1029.90
2023-01-28T02:50:01.665Z,1029.88
2023-01-28T02:51:01.845Z,1029.91
2023-01-28T02:52:02.005Z,1029.88
2023-01-28T02:53:02.210Z,1029.85
2023-01-28T02:54:02.354Z,1029.83
2023-01-28T02:55:02.557Z,1029.78
2023-01-28T02:56:02.731Z,1029.85
2023-01-28T02:57:02.856Z,1029.81
2023-01-28T02:58:03.037Z,1029.80
2023-01-28T02:59:03.200Z,1029.78
2023-01-28T03:00:03.367Z,1029.82
2023-01-28T03:01:03.545Z,1029.83
2023-01-28T03:02:03.736Z,1029.84
2023-01-28T03:03:03.871Z,1029.82
2023-01-28T03:04:04.033Z,1029.82
2023-01-28T03:05:04.202Z,1029.83
2023-01-28T03:06:04.394Z,1029.83
2023-01-28T03:07:04.575Z,1029.83
2023-01-28T03:08:04.750Z,1029.79
2023-01-28T03:09:05.010Z,1029.87
2023-01-28T03:10:05.187Z,1029.85
2023-01-28T03:11:05.252Z,1029.80
2023-01-28T03:12:05.461Z,1029.82
2023-01-28T03:13:05.627Z,1029.81
2023-01-28T03:14:05.774Z,1029.84
2023-01-28T03:15:05.947Z,1029.91
2023-01-28T03:16:06.228Z,1029.82
2023-01-28T03:17:06.285Z,1029.86
2023-01-28T03:18:06.486Z,1029.82
2023-01-28T03:19:06.698Z,1029.80
2023-01-28T03:20:06.787Z,1029.81
2023-01-28T03:21:06.960Z,1029.79
2023-01-28T03:22:07.206Z,1029.80
2023-01-28T03:23:08.070Z,1029.76
2023-01-28T03:24:07.572Z,1029.83
2023-01-28T03:25:07.653Z,1029.78
2023-01-28T03:26:07.847Z,1029.80
2023-01-28T03:27:08.133Z,1029.81
2023-01-28T03:28:08.170Z,1029.81
2023-01-28T03:29:08.327Z,1029.83
2023-01-28T03:30:08.504Z,1029.79
2023-01-28T03:31:08.720Z,1029.76
2023-01-28T03:32:08.921Z,1029.77
2023-01-28T03:33:09.020Z,1029.81
2023-01-28T03:34:09.210Z,1029.80
2023-01-28T03:35:09.393Z,1029.80
2023-01-28T03:36:09.582Z,1029.80
2023-01-28T03:37:09.744Z,1029.79
2023-01-28T03:38:09.891Z,1029.79
2023-01-28T03:39:10.051Z,1029.79
2023-01-28T03:40:10.313Z,1029.84
2023-01-28T03:41:10.399Z,1029.80
2023-01-28T03:42:10.568Z,1029.84
2023-01-28T03:43:10.729Z,1029.80
2023-01-28T03:44:10.932Z,1029.81
2023-01-28T03:45:11.182Z,1029.79
2023-01-28T03:46:11.286Z,1029.76
2023-01-28T03:47:11.444Z,1029.79
2023-01-28T03:48:11.623Z,1029.81
2023-01-28T03:49:11.778Z,1029.81
2023-01-28T03:50:11.961Z,1029.80
2023-01-28T03:51:12.107Z,1029.80
2023-01-28T03:52:12.306Z,1029.80
2023-01-28T03:53:15.880Z,1029.82
2023-01-28T03:54:12.661Z,1029.75
2023-01-28T03:55:13.248Z,1029.75
2023-01-28T03:56:13.057Z,1029.73
2023-01-28T03:57:13.173Z,1029.76
2023-01-28T03:58:13.380Z,1029.79
2023-01-28T03:59:13.560Z,1029.78
2023-01-28T04:00:13.686Z,1029.80
2023-01-28T04:01:13.860Z,1029.81
2023-01-28T04:02:14.045Z,1029.81
2023-01-28T04:03:14.284Z,1029.76
2023-01-28T04:04:14.362Z,1029.73
2023-01-28T04:05:14.876Z,1029.72
2023-01-28T04:06:14.722Z,1029.67
2023-01-28T04:07:14.894Z,1029.75
2023-01-28T04:08:15.077Z,1029.76
2023-01-28T04:09:15.250Z,1029.77
2023-01-28T04:10:15.407Z,1029.78
2023-01-28T04:11:15.642Z,1029.74
2023-01-28T04:12:15.766Z,1029.79
2023-01-28T04:13:15.935Z,1029.79
2023-01-28T04:14:16.103Z,1029.79
2023-01-28T04:15:16.787Z,1029.73
2023-01-28T04:16:16.647Z,1029.77
2023-01-28T04:17:16.634Z,1029.75
2023-01-28T04:18:16.805Z,1029.77
2023-01-28T04:19:17.045Z,1029.77
2023-01-28T04:20:17.167Z,1029.79
2023-01-28T04:21:17.327Z,1029.80
2023-01-28T04:22:17.583Z,1029.76
2023-01-28T04:23:17.693Z,1029.79
2023-01-28T04:24:17.860Z,1029.77
2023-01-28T04:25:18.102Z,1029.79
2023-01-28T04:26:18.183Z,1029.80
2023-01-28T04:27:18.345Z,1029.81
2023-01-28T04:28:18.541Z,1029.82
2023-01-28T04:29:18.707Z,1029.83
2023-01-28T04:30:18.855Z,1029.83
2023-01-28T04:31:19.096Z,1029.84
2023-01-28T04:32:19.174Z,1029.88
2023-01-28T04:33:19.355Z,1029.89
2023-01-28T04:34:19.517Z,1029.91
2023-01-28T04:35:19.671Z,1029.95
2023-01-28T04:36:19.833Z,1029.96
2023-01-28T04:37:19.992Z,1029.94
2023-01-28T04:38:20.174Z,1029.95
2023-01-28T04:39:20.344Z,1029.96
2023-01-28T04:40:20.490Z,1029.99
2023-01-28T04:41:20.650Z,1029.99
2023-01-28T04:42:20.859Z,1030.02
2023-01-28T04:43:21.019Z,1030.03
2023-01-28T04:44:21.230Z,1030.02
2023-01-28T04:45:21.360Z,1030.00
2023-01-28T04:46:21.578Z,1030.01
2023-01-28T04:47:21.744Z,1029.98
2023-01-28T04:48:21.889Z,1029.91
2023-01-28T04:49:22.054Z,1029.97
2023-01-28T04:50:22.209Z,1029.92
2023-01-28T04:51:22.378Z,1029.89
2023-01-28T04:52:22.529Z,1029.89
2023-01-28T04:53:22.749Z,1029.90
2023-01-28T04:54:22.912Z,1029.89
2023-01-28T04:55:23.075Z,1029.85
2023-01-28T04:56:23.367Z,1029.86
2023-01-28T04:57:23.390Z,1029.87
2023-01-28T04:58:23.561Z,1029.86
2023-01-28T04:59:23.734Z,1029.86
2023-01-28T05:00:23.891Z,1029.92
2023-01-28T05:01:24.075Z,1029.89
2023-01-28T05:02:24.238Z,1029.88
2023-01-28T05:03:24.443Z,1029.91
2023-01-28T05:04:24.599Z,1029.93
2023-01-28T05:05:24.762Z,1029.89
2023-01-28T05:06:24.971Z,1029.94
2023-01-28T05:07:25.098Z,1029.90
2023-01-28T05:08:25.267Z,1029.89
2023-01-28T05:09:25.435Z,1029.94
2023-01-28T05:10:25.639Z,1029.97
2023-01-28T05:11:25.875Z,1029.94
2023-01-28T05:12:26.006Z,1029.99
2023-01-28T05:13:26.167Z,1029.99
2023-01-28T05:14:26.347Z,1030.05
2023-01-28T05:15:26.554Z,1030.08
2023-01-28T05:16:26.742Z,1030.07
2023-01-28T05:17:26.896Z,1030.08
2023-01-28T05:18:27.084Z,1030.11
2023-01-28T05:19:27.206Z,1030.12
2023-01-28T05:20:27.400Z,1030.13
2023-01-28T05:21:27.594Z,1030.17
2023-01-28T05:22:27.733Z,1030.12
2023-01-28T05:23:27.951Z,1030.13
2023-01-28T05:24:28.168Z,1030.09
2023-01-28T05:25:28.302Z,1030.11
2023-01-28T05:26:28.479Z,1030.08
2023-01-28T05:27:28.634Z,1030.10
2023-01-28T05:28:28.819Z,1030.11
2023-01-28T05:29:29.019Z,1030.12
2023-01-28T05:30:29.185Z,1030.15
2023-01-28T05:31:29.335Z,1030.11
2023-01-28T05:32:29.551Z,1030.12
2023-01-28T05:33:29.728Z,1030.14
2023-01-28T05:34:29.880Z,1030.11
2023-01-28T05:35:30.024Z,1030.12
2023-01-28T05:36:30.181Z,1030.09
2023-01-28T05:37:30.334Z,1030.08
2023-01-28T05:38:30.523Z,1030.10
2023-01-28T05:39:30.692Z,1030.14
2023-01-28T05:40:30.844Z,1030.13
2023-01-28T05:41:31.024Z,1030.14
2023-01-28T05:42:31.175Z,1030.13
2023-01-28T05:43:31.419Z,1030.04
2023-01-28T05:44:31.552Z,1030.02
2023-01-28T05:45:31.732Z,1030.00
2023-01-28T05:46:31.885Z,1029.98
2023-01-28T05:47:32.034Z,1029.95
2023-01-28T05:48:32.305Z,1029.98
2023-01-28T05:49:32.385Z,1030.04
2023-01-28T05:50:32.579Z,1029.99
2023-01-28T05:51:32.786Z,1030.08
2023-01-28T05:52:32.861Z,1030.08
2023-01-28T05:53:33.073Z,1030.04
2023-01-28T05:54:33.312Z,1030.10
2023-01-28T05:55:33.413Z,1030.07
2023-01-28T05:56:33.605Z,1030.08
2023-01-28T05:57:33.818Z,1030.09
2023-01-28T05:58:33.952Z,1030.05
2023-01-28T05:59:34.116Z,1030.03
2023-01-28T06:00:34.309Z,1030.08
2023-01-28T06:01:34.449Z,1030.07
2023-01-28T06:02:34.691Z,1030.08
2023-01-28T06:03:34.819Z,1030.10
2023-01-28T06:04:34.996Z,1030.08
2023-01-28T06:05:35.274Z,1030.07
2023-01-28T06:06:35.321Z,1030.04
2023-01-28T06:07:35.487Z,1030.00
2023-01-28T06:08:35.670Z,1030.01
2023-01-28T06:09:35.810Z,1030.03
2023-01-28T06:10:35.951Z,1030.07
2023-01-28T06:11:36.160Z,1030.07
2023-01-28T06:12:36.312Z,1030.12
2023-01-28T06:13:36.519Z,1030.10
2023-01-28T06:14:36.667Z,1030.13
2023-01-28T06:15:36.895Z,1030.06
2023-01-28T06:16:36.997Z,1030.08
2023-01-28T06:17:37.159Z,1030.07
2023-01-28T06:18:37.319Z,1030.07
2023-01-28T06:19:37.487Z,1030.16
2023-01-28T06:20:37.638Z,1030.11
2023-01-28T06:21:37.858Z,1030.17
2023-01-28T06:22:38.023Z,1030.17
2023-01-28T06:23:38.200Z,1030.15
2023-01-28T06:24:38.374Z,1030.15
2023-01-28T06:25:38.522Z,1030.15
2023-01-28T06:26:38.692Z,1030.20
2023-01-28T06:27:38.848Z,1030.22
2023-01-28T06:28:39.138Z,1030.24
2023-01-28T06:29:39.178Z,1030.25
2023-01-28T06:30:39.364Z,1030.22
2023-01-28T06:31:39.595Z,1030.21
2023-01-28T06:32:39.714Z,1030.20
2023-01-28T06:33:39.886Z,1030.20
2023-01-28T06:34:40.092Z,1030.19
2023-01-28T06:35:40.226Z,1030.21
2023-01-28T06:36:40.425Z,1030.22
2023-01-28T06:37:40.584Z,1030.21
2023-01-28T06:38:40.733Z,1030.23
2023-01-28T06:39:40.883Z,1030.23
2023-01-28T06:40:41.084Z,1030.21
2023-01-28T06:41:41.276Z,1030.21
2023-01-28T06:42:41.446Z,1030.20
2023-01-28T06:43:41.615Z,1030.22
2023-01-28T06:44:41.797Z,1030.22
2023-01-28T06:45:41.983Z,1030.26
2023-01-28T06:46:42.179Z,1030.27
2023-01-28T06:47:42.347Z,1030.30
2023-01-28T06:48:42.485Z,1030.31
2023-01-28T06:49:42.664Z,1030.31
2023-01-28T06:50:42.889Z,1030.29
2023-01-28T06:51:43.064Z,1030.31
2023-01-28T06:52:43.218Z,1030.30
2023-01-28T06:53:45.933Z,1030.27
2023-01-28T06:54:43.563Z,1030.31
2023-01-28T06:55:43.753Z,1030.28
2023-01-28T06:56:43.943Z,1030.32
2023-01-28T06:57:44.131Z,1030.32
2023-01-28T06:58:44.339Z,1030.31
2023-01-28T06:59:44.471Z,1030.30
2023-01-28T07:00:44.709Z,1030.30
2023-01-28T07:01:44.873Z,1030.36
2023-01-28T07:02:45.059Z,1030.30
2023-01-28T07:03:45.303Z,1030.32
2023-01-28T07:04:45.354Z,1030.28
2023-01-28T07:05:45.542Z,1030.25
2023-01-28T07:06:45.800Z,1030.23
2023-01-28T07:07:45.895Z,1030.26
2023-01-28T07:08:46.092Z,1030.26
2023-01-28T07:09:46.315Z,1030.37
2023-01-28T07:10:46.440Z,1030.40
2023-01-28T07:11:46.636Z,1030.40
2023-01-28T07:12:46.843Z,1030.44
2023-01-28T07:13:47.022Z,1030.38
2023-01-28T07:14:47.129Z,1030.38
2023-01-28T07:15:47.333Z,1030.38
2023-01-28T07:16:47.592Z,1030.33
2023-01-28T07:17:47.637Z,1030.32
2023-01-28T07:18:47.834Z,1030.30
2023-01-28T07:19:48.008Z,1030.29
2023-01-28T07:20:48.153Z,1030.34
2023-01-28T07:21:48.350Z,1030.38
2023-01-28T07:22:48.494Z,1030.34
2023-01-28T07:23:48.652Z,1030.35
2023-01-28T07:24:48.811Z,1030.33
2023-01-28T07:25:49.014Z,1030.30
2023-01-28T07:26:49.171Z,1030.32
2023-01-28T07:27:49.354Z,1030.28
2023-01-28T07:28:49.613Z,1030.27
2023-01-28T07:29:49.650Z,1030.32
2023-01-28T07:30:51.855Z,1030.29
2023-01-28T07:31:50.108Z,1030.31
2023-01-28T07:32:50.180Z,1030.32
2023-01-28T07:33:50.403Z,1030.29
2023-01-28T07:34:50.603Z,1030.29
2023-01-28T07:35:50.740Z,1030.35
2023-01-28T07:36:50.954Z,1030.27
2023-01-28T07:37:51.089Z,1030.31
2023-01-28T07:38:51.396Z,1030.31
2023-01-28T07:39:51.444Z,1030.30
2023-01-28T07:40:51.611Z,1030.28
2023-01-28T07:41:51.879Z,1030.32
2023-01-28T07:42:51.959Z,1030.30
2023-01-28T07:43:52.167Z,1030.30
2023-01-28T07:44:52.312Z,1030.30
2023-01-28T07:45:52.502Z,1030.32
2023-01-28T07:46:52.671Z,1030.29
2023-01-28T07:47:52.866Z,1030.29
2023-01-28T07:48:53.056Z,1030.26
2023-01-28T07:49:53.207Z,1030.21
2023-01-28T07:50:53.410Z,1030.30
2023-01-28T07:51:53.546Z,1030.27
2023-01-28T07:52:53.762Z,1030.28
2023-01-28T07:53:53.907Z,1030.26
2023-01-28T07:54:54.069Z,1030.34
2023-01-28T07:55:54.298Z,1030.30
2023-01-28T07:56:54.407Z,1030.30
2023-01-28T07:57:54.583Z,1030.31
2023-01-28T07:58:54.790Z,1030.36
2023-01-28T07:59:54.885Z,1030.35
2023-01-28T08:00:55.065Z,1030.35
2023-01-28T08:01:55.308Z,1030.34
2023-01-28T08:02:55.396Z,1030.34
2023-01-28T08:03:55.592Z,1030.34
2023-01-28T08:04:55.900Z,1030.34
2023-01-28T08:05:55.978Z,1030.36
2023-01-28T08:06:56.075Z,1030.36
2023-01-28T08:07:56.248Z,1030.43
2023-01-28T08:08:56.475Z,1030.49
2023-01-28T08:09:56.609Z,1030.49
2023-01-28T08:10:56.761Z,1030.50
2023-01-28T08:11:56.949Z,1030.51
2023-01-28T08:12:57.094Z,1030.50
2023-01-28T08:13:57.262Z,1030.55
2023-01-28T08:14:57.427Z,1030.52
2023-01-28T08:15:57.645Z,1030.54
2023-01-28T08:16:57.797Z,1030.52
2023-01-28T08:17:57.981Z,1030.49
2023-01-28T08:18:58.164Z,1030.50
2023-01-28T08:19:58.324Z,1030.49
2023-01-28T08:20:58.494Z,1030.50
2023-01-28T08:21:58.788Z,1030.56
2023-01-28T08:22:58.862Z,1030.56
2023-01-28T08:23:59.127Z,1030.53
2023-01-28T08:24:59.333Z,1030.57
2023-01-28T08:25:59.436Z,1030.52
2023-01-28T08:26:59.599Z,1030.56
2023-01-28T08:27:59.841Z,1030.55
2023-01-28T08:28:59.974Z,1030.60
2023-01-28T08:30:00.149Z,1030.65
2023-01-28T08:31:00.462Z,1030.62
2023-01-28T08:32:00.519Z,1030.66
2023-01-28T08:33:00.697Z,1030.66
2023-01-28T08:34:02.288Z,1030.69
2023-01-28T08:35:01.022Z,1030.72
2023-01-28T08:36:01.213Z,1030.70
2023-01-28T08:37:01.391Z,1030.74
2023-01-28T08:38:01.610Z,1030.74
2023-01-28T08:39:01.776Z,1030.75
2023-01-28T08:40:01.921Z,1030.74
2023-01-28T08:41:02.123Z,1030.75
2023-01-28T08:42:02.267Z,1030.80
2023-01-28T08:43:02.445Z,1030.79
2023-01-28T08:44:02.805Z,1030.79
2023-01-28T08:45:02.813Z,1030.74
2023-01-28T08:46:03.042Z,1030.76
2023-01-28T08:47:03.249Z,1030.75
2023-01-28T08:48:03.343Z,1030.78
2023-01-28T08:49:03.541Z,1030.77
2023-01-28T08:50:03.697Z,1030.75
2023-01-28T08:51:03.859Z,1030.77
2023-01-28T08:52:04.060Z,1030.76
2023-01-28T08:53:04.240Z,1030.80
2023-01-28T08:54:04.485Z,1030.77
2023-01-28T08:55:04.584Z,1030.77
2023-01-28T08:56:04.782Z,1030.76
2023-01-28T08:57:04.990Z,1030.75
2023-01-28T08:58:05.130Z,1030.73
2023-01-28T08:59:05.326Z,1030.77
2023-01-28T09:00:05.548Z,1030.66
2023-01-28T09:01:05.668Z,1030.66
2023-01-28T09:02:05.853Z,1030.66
2023-01-28T09:03:06.450Z,1030.65
2023-01-28T09:04:06.259Z,1030.63
2023-01-28T09:05:06.379Z,1030.68
2023-01-28T09:06:06.565Z,1030.72
2023-01-28T09:07:06.757Z,1030.79
2023-01-28T09:08:06.939Z,1030.82
2023-01-28T09:09:07.096Z,1030.83
2023-01-28T09:10:07.312Z,1030.89
2023-01-28T09:11:07.463Z,1030.88
2023-01-28T09:12:07.636Z,1030.90
2023-01-28T09:13:07.861Z,1030.87
2023-01-28T09:14:07.977Z,1030.86
2023-01-28T09:15:08.157Z,1030.86
2023-01-28T09:16:08.430Z,1030.89
2023-01-28T09:17:08.537Z,1030.92
2023-01-28T09:18:08.719Z,1030.89
2023-01-28T09:19:08.906Z,1030.92
2023-01-28T09:20:09.117Z,1030.91
2023-01-28T09:21:09.270Z,1030.90
2023-01-28T09:22:09.437Z,1030.96
2023-01-28T09:23:09.646Z,1030.95
2023-01-28T09:24:09.804Z,1030.96
2023-01-28T09:25:09.964Z,1030.97
2023-01-28T09:26:10.146Z,1030.99
2023-01-28T09:27:10.305Z,1030.96
2023-01-28T09:28:10.495Z,1031.02
2023-01-28T09:29:10.707Z,1030.99
2023-01-28T09:30:10.842Z,1031.01
2023-01-28T09:31:11.081Z,1031.03
2023-01-28T09:32:11.215Z,1031.03
2023-01-28T09:33:11.376Z,1031.04
2023-01-28T09:34:11.568Z,1031.07
2023-01-28T09:35:11.736Z,1031.10
2023-01-28T09:36:11.917Z,1031.11
2023-01-28T09:37:12.097Z,1031.16
2023-01-28T09:38:12.268Z,1031.14
2023-01-28T09:39:12.491Z,1031.12
2023-01-28T09:40:13.013Z,1031.12
2023-01-28T09:41:12.792Z,1031.13
2023-01-28T09:42:13.059Z,1031.16
2023-01-28T09:43:13.154Z,1031.13
2023-01-28T09:44:13.353Z,1031.15
2023-01-28T09:45:13.604Z,1031.16
2023-01-28T09:46:13.716Z,1031.16
2023-01-28T09:47:13.877Z,1031.13
2023-01-28T09:48:14.051Z,1031.13
2023-01-28T09:49:14.292Z,1031.13
2023-01-28T09:50:14.752Z,1031.18
2023-01-28T09:51:14.594Z,1031.17
2023-01-28T09:52:14.765Z,1031.15
2023-01-28T09:53:14.941Z,1031.15
2023-01-28T09:54:15.211Z,1031.14
2023-01-28T09:55:15.316Z,1031.20
2023-01-28T09:56:15.463Z,1031.19
2023-01-28T09:57:15.655Z,1031.19
2023-01-28T09:58:15.823Z,1031.17
2023-01-28T09:59:16.100Z,1031.17
2023-01-28T10:00:16.211Z,1031.19
2023-01-28T10:01:16.425Z,1031.15
2023-01-28T10:02:16.552Z,1031.15
2023-01-28T10:03:16.701Z,1031.16
2023-01-28T10:04:16.921Z,1031.15
2023-01-28T10:05:17.070Z,1031.16
2023-01-28T10:06:17.254Z,1031.20
2023-01-28T10:07:17.421Z,1031.18
2023-01-28T10:08:17.591Z,1031.20
2023-01-28T10:09:17.800Z,1031.19
2023-01-28T10:10:18.379Z,1031.18
2023-01-28T10:11:18.133Z,1031.16
2023-01-28T10:12:18.329Z,1031.14
2023-01-28T10:13:20.819Z,1031.13
2023-01-28T10:14:18.682Z,1031.11
2023-01-28T10:15:18.844Z,1031.11
2023-01-28T10:16:19.011Z,1031.06
2023-01-28T10:17:19.247Z,1031.10
2023-01-28T10:18:19.369Z,1031.06
2023-01-28T10:19:19.723Z,1031.08
2023-01-28T10:20:19.747Z,1031.11
2023-01-28T10:21:19.933Z,1031.11
2023-01-28T10:22:20.085Z,1031.07
2023-01-28T10:23:20.263Z,1031.05
2023-01-28T10:24:20.492Z,1031.07
2023-01-28T10:25:20.620Z,1031.02
2023-01-28T10:26:20.800Z,1031.07
2023-01-28T10:27:21.014Z,1031.05
2023-01-28T10:28:21.191Z,1031.03
2023-01-28T10:29:21.364Z,1031.01
2023-01-28T10:30:21.539Z,1030.99
2023-01-28T10:31:21.752Z,1031.05
2023-01-28T10:32:21.879Z,1031.04
2023-01-28T10:33:22.169Z,1031.03
2023-01-28T10:34:22.291Z,1031.05
2023-01-28T10:35:22.435Z,1031.01
2023-01-28T10:36:22.715Z,1030.97
2023-01-28T10:37:22.808Z,1030.96
2023-01-28T10:38:22.991Z,1030.93
2023-01-28T10:39:23.238Z,1030.91
2023-01-28T10:40:23.332Z,1030.89
2023-01-28T10:41:23.514Z,1030.95
2023-01-28T10:42:23.736Z,1030.95
2023-01-28T10:43:23.883Z,1030.95
2023-01-28T10:44:24.048Z,1030.94
2023-01-28T10:45:24.214Z,1030.93
2023-01-28T10:46:24.395Z,1030.92
2023-01-28T10:47:24.558Z,1030.88
2023-01-28T10:48:24.728Z,1030.88
2023-01-28T10:49:24.938Z,1030.91
2023-01-28T10:50:25.115Z,1030.95
2023-01-28T10:51:25.245Z,1030.98
2023-01-28T10:52:25.428Z,1030.96
2023-01-28T10:53:27.143Z,1030.89
2023-01-28T10:54:25.836Z,1030.86
2023-01-28T10:55:25.996Z,1030.87
2023-01-28T10:56:26.108Z,1030.86
2023-01-28T10:57:26.291Z,1030.86
2023-01-28T10:58:26.528Z,1030.89
2023-01-28T10:59:26.641Z,1030.92
2023-01-28T11:00:26.845Z,1030.91
2023-01-28T11:01:26.977Z,1030.91
2023-01-28T11:02:27.227Z,1030.90
2023-01-28T11:03:27.332Z,1030.85
2023-01-28T11:04:27.505Z,1030.87
2023-01-28T11:05:27.690Z,1030.89
2023-01-28T11:06:27.831Z,1030.87
2023-01-28T11:07:28.024Z,1030.90
2023-01-28T11:08:28.306Z,1030.89
2023-01-28T11:09:28.418Z,1030.90
2023-01-28T11:10:28.586Z,1030.93
2023-01-28T11:11:28.832Z,1030.92
2023-01-28T11:12:28.926Z,1030.92
2023-01-28T11:13:29.109Z,1030.93
2023-01-28T11:14:29.384Z,1030.92
2023-01-28T11:15:29.481Z,1030.94
2023-01-28T11:16:29.669Z,1030.94
2023-01-28T11:17:29.909Z,1030.92
2023-01-28T11:18:29.977Z,1030.88
2023-01-28T11:19:30.177Z,1030.92
2023-01-28T11:20:30.371Z,1030.89
2023-01-28T11:21:30.526Z,1030.90
2023-01-28T11:22:30.704Z,1030.92
2023-01-28T11:23:30.904Z,1030.88
2023-01-28T11:24:31.127Z,1030.85
2023-01-28T11:25:31.218Z,1030.84
2023-01-28T11:26:31.389Z,1030.84
2023-01-28T11:27:31.593Z,1030.87
2023-01-28T11:28:31.724Z,1030.83
2023-01-28T11:29:31.925Z,1030.84
2023-01-28T11:30:32.149Z,1030.80
2023-01-28T11:31:32.340Z,1030.80
2023-01-28T11:32:32.421Z,1030.82
2023-01-28T11:33:32.612Z,1030.74
2023-01-28T11:34:32.756Z,1030.72
2023-01-28T11:35:32.919Z,1030.73
2023-01-28T11:36:33.146Z,1030.73
2023-01-28T11:37:33.275Z,1030.74
2023-01-28T11:38:33.466Z,1030.79
2023-01-28T11:39:33.732Z,1030.79
2023-01-28T11:40:33.833Z,1030.80
2023-01-28T11:41:34.015Z,1030.77
2023-01-28T11:42:34.155Z,1030.78
2023-01-28T11:43:34.357Z,1030.71
2023-01-28T11:44:34.599Z,1030.65
2023-01-28T11:45:34.790Z,1030.66
2023-01-28T11:46:34.866Z,1030.66
2023-01-28T11:47:35.061Z,1030.66
2023-01-28T11:48:35.271Z,1030.64
2023-01-28T11:49:35.414Z,1030.62
2023-01-28T11:50:35.587Z,1030.63
2023-01-28T11:51:35.742Z,1030.60
2023-01-28T11:52:55.484Z,1030.64
2023-01-28T11:53:37.079Z,1030.57
2023-01-28T11:54:36.271Z,1030.56
2023-01-28T11:55:36.461Z,1030.51
2023-01-28T11:56:36.650Z,1030.51
2023-01-28T11:57:36.920Z,1030.49
2023-01-28T11:58:36.999Z,1030.49
2023-01-28T11:59:37.198Z,1030.49
2023-01-28T12:00:37.433Z,1030.51
2023-01-28T12:01:37.522Z,1030.55
2023-01-28T12:02:37.805Z,1030.56
2023-01-28T12:03:37.976Z,1030.58
2023-01-28T12:04:38.102Z,1030.55
2023-01-28T12:05:38.255Z,1030.45
2023-01-28T12:06:38.445Z,1030.45
2023-01-28T12:07:38.594Z,1030.46